Time;durP1;ratioP1;P1;durP2;ratioP2;P2;SDS_P1;SDS_P2;PMS_P1;PMS_P2;Temp;Humidity;BMP_temperature;BMP_pressure;BME280_temperature;BME280_humidity;BME280_pressure;Samples;Min_cycle;Max_cycle;Signal;HPM_P1;HPM_P2
2023/01/22 00:00:09;;;;;;;;;29.00;27.67;23.20;42.90;;;;;;112799;1244;56625;-71
2023/01/22 00:02:57;;;;;;;;;31.25;26.25;23.20;42.90;;;;;;112818;1243;49891;-71
2023/01/22 00:05:24;;;;;;;;;32.50;29.50;23.30;43.20;;;;;;112801;1243;49173;-71
2023/01/22 00:07:51;;;;;;;;;31.50;28.00;23.30;42.90;;;;;;112794;1243;45735;-71
2023/01/22 00:10:18;;;;;;;;;29.75;28.50;23.30;42.90;;;;;;112793;1243;55940;-71
2023/01/22 00:12:45;;;;;;;;;30.00;28.75;23.30;42.90;;;;;;112954;1242;55602;-71
2023/01/22 00:15:12;;;;;;;;;30.50;27.50;23.30;42.90;;;;;;113118;1241;48732;-71
2023/01/22 00:17:38;;;;;;;;;35.67;29.67;23.30;42.90;;;;;;113108;1241;49626;-71
2023/01/22 00:20:06;;;;;;;;;34.25;32.25;23.30;42.90;;;;;;113104;1243;45477;-71
2023/01/22 00:22:33;;;;;;;;;34.50;29.00;23.20;42.80;;;;;;113146;1241;56677;-71
2023/01/22 00:25:00;;;;;;;;;32.00;29.00;23.20;42.80;;;;;;113109;1243;56019;-71
2023/01/22 00:27:26;;;;;;;;;32.75;29.00;23.30;42.90;;;;;;113117;1238;50213;-71
2023/01/22 00:29:53;;;;;;;;;39.00;31.75;23.20;42.80;;;;;;113081;1242;49485;-71
2023/01/22 00:32:20;;;;;;;;;31.00;29.50;23.20;42.80;;;;;;113121;1243;45098;-71
2023/01/22 00:34:51;;;;;;;;;32.75;30.25;23.20;42.80;;;;;;113106;1238;55998;-71
2023/01/22 00:37:19;;;;;;;;;32.75;29.75;23.20;42.80;;;;;;113105;1241;55853;-71
2023/01/22 00:39:46;;;;;;;;;36.75;30.50;23.20;42.80;;;;;;113110;1241;49904;-71
2023/01/22 00:42:13;;;;;;;;;30.00;26.75;23.20;42.80;;;;;;113111;1241;49208;-71
2023/01/22 00:44:39;;;;;;;;;33.50;29.25;23.20;42.80;;;;;;113114;1238;44876;-71
2023/01/22 00:47:06;;;;;;;;;39.50;32.75;23.20;42.80;;;;;;112849;1242;56118;-71
2023/01/22 00:49:33;;;;;;;;;30.75;28.50;23.20;42.80;;;;;;113110;1242;55519;-71
2023/01/22 00:52:00;;;;;;;;;34.25;29.25;23.20;42.80;;;;;;113120;1242;50461;-71
2023/01/22 00:54:28;;;;;;;;;36.50;32.75;23.20;42.80;;;;;;113089;1242;48906;-71
2023/01/22 00:56:56;;;;;;;;;38.00;33.00;23.20;43.00;;;;;;113119;1242;45641;-72
2023/01/22 00:59:23;;;;;;;;;34.50;30.00;23.20;42.80;;;;;;113103;1238;55215;-72
2023/01/22 01:01:50;;;;;;;;;35.00;30.25;23.20;42.40;;;;;;113129;1243;56231;-72
2023/01/22 01:04:17;;;;;;;;;35.00;31.00;23.20;42.80;;;;;;113114;1242;49259;-72
2023/01/22 01:06:44;;;;;;;;;31.75;27.50;23.20;42.80;;;;;;113110;1243;49677;-72
2023/01/22 01:09:11;;;;;;;;;32.50;29.00;23.20;42.80;;;;;;113108;1241;45010;-71
2023/01/22 01:11:38;;;;;;;;;38.75;31.75;23.20;42.80;;;;;;113105;1244;55607;-72
2023/01/22 01:14:05;;;;;;;;;35.50;28.00;23.20;42.80;;;;;;113141;1241;56324;-72
2023/01/22 01:16:32;;;;;;;;;39.00;31.50;23.10;42.70;;;;;;113130;1243;50270;-72
2023/01/22 01:19:01;;;;;;;;;33.00;30.00;23.20;42.80;;;;;;113112;1241;49758;-72
2023/01/22 01:21:29;;;;;;;;;30.00;27.67;23.10;42.70;;;;;;113126;1242;45975;-72
2023/01/22 01:23:57;;;;;;;;;35.25;30.00;23.10;42.70;;;;;;113127;1238;55662;-72
2023/01/22 01:26:24;;;;;;;;;35.75;30.00;23.10;42.70;;;;;;113097;1241;55842;-72
2023/01/22 01:28:52;;;;;;;;;35.00;31.00;23.10;42.70;;;;;;113102;1242;49284;-72
2023/01/22 01:31:21;;;;;;;;;33.50;30.75;23.20;42.80;;;;;;112844;1244;49060;-72
2023/01/22 01:33:49;;;;;;;;;34.50;30.50;23.20;42.90;;;;;;113129;1241;44277;-72
2023/01/22 01:36:22;;;;;;;;;32.50;30.00;23.10;42.60;;;;;;112854;1242;56558;-72
2023/01/22 01:38:50;;;;;;;;;34.00;31.00;23.10;42.60;;;;;;113134;1238;56876;-72
2023/01/22 01:41:24;;;;;;;;;31.25;29.50;23.10;42.60;;;;;;113108;1241;49715;-72
2023/01/22 01:44:27;;;;;;;;;30.25;27.25;23.10;42.60;;;;;;112799;1238;49020;-72
2023/01/22 01:47:04;;;;;;;;;32.75;29.25;23.20;42.70;;;;;;112822;1243;45818;-72
2023/01/22 01:49:43;;;;;;;;;37.00;31.75;23.20;42.70;;;;;;112791;1243;55880;-72
2023/01/22 01:52:12;;;;;;;;;35.00;32.00;23.20;42.60;;;;;;112817;1243;55550;-72
2023/01/22 01:54:41;;;;;;;;;29.50;27.50;23.20;42.60;;;;;;112801;1241;49824;-72
2023/01/22 01:57:14;;;;;;;;;35.00;32.00;23.20;42.60;;;;;;112773;1243;49682;-71
2023/01/22 01:59:42;;;;;;;;;33.25;30.25;23.20;42.60;;;;;;112811;1243;44398;-71
2023/01/22 02:02:09;;;;;;;;;36.00;30.50;23.20;42.60;;;;;;112815;1243;55816;-72
2023/01/22 02:04:36;;;;;;;;;32.25;29.75;23.20;42.80;;;;;;112798;1243;55592;-72
2023/01/22 02:07:04;;;;;;;;;31.00;29.00;23.20;42.60;;;;;;112812;1238;50247;-71
2023/01/22 02:09:31;;;;;;;;;31.00;29.25;23.20;42.60;;;;;;112794;1243;49738;-72
2023/01/22 02:11:58;;;;;;;;;30.75;28.00;23.20;42.60;;;;;;113053;1238;44454;-72
2023/01/22 02:14:30;;;;;;;;;34.75;30.75;23.20;42.60;;;;;;113109;1242;56118;-72
2023/01/22 02:17:07;;;;;;;;;31.00;28.00;23.10;42.50;;;;;;112833;1243;55776;-72
2023/01/22 02:19:34;;;;;;;;;32.00;29.25;23.10;42.70;;;;;;113109;1242;49006;-72
2023/01/22 02:22:01;;;;;;;;;36.25;31.00;23.10;42.50;;;;;;113113;1242;50834;-72
2023/01/22 02:24:29;;;;;;;;;35.75;30.75;23.10;42.50;;;;;;113112;1243;44573;-72
2023/01/22 02:26:56;;;;;;;;;33.25;29.00;23.10;42.50;;;;;;113120;1243;56915;-72
2023/01/22 02:29:25;;;;;;;;;34.00;30.00;23.10;42.50;;;;;;113103;1242;56097;-72
2023/01/22 02:31:52;;;;;;;;;34.75;28.75;23.10;42.50;;;;;;113101;1238;50655;-73
2023/01/22 02:34:23;;;;;;;;;35.25;30.75;23.10;42.50;;;;;;113099;1238;49260;-72
2023/01/22 02:36:50;;;;;;;;;33.50;30.00;23.10;42.50;;;;;;113098;1238;45442;-72
2023/01/22 02:39:17;;;;;;;;;29.00;27.67;23.10;42.50;;;;;;113121;1241;56171;-72
2023/01/22 02:41:44;;;;;;;;;39.25;30.00;23.10;42.50;;;;;;113114;1241;55588;-72
2023/01/22 02:44:11;;;;;;;;;35.50;31.00;23.10;42.50;;;;;;112861;1240;49233;-71
2023/01/22 02:46:38;;;;;;;;;31.00;29.00;23.10;42.50;;;;;;113113;1238;49011;-72
2023/01/22 02:49:05;;;;;;;;;34.50;31.50;23.10;42.50;;;;;;113113;1238;45012;-71
2023/01/22 02:51:32;;;;;;;;;35.75;31.50;23.10;42.50;;;;;;113112;1241;56388;-71
2023/01/22 02:53:59;;;;;;;;;38.33;32.67;23.10;42.50;;;;;;113118;1242;55841;-71
2023/01/22 02:56:26;;;;;;;;;39.25;32.75;23.10;42.70;;;;;;112876;1244;50479;-72
2023/01/22 02:58:53;;;;;;;;;33.33;30.00;23.10;42.50;;;;;;112882;1244;50279;-71
2023/01/22 03:01:24;;;;;;;;;32.25;27.00;23.10;42.50;;;;;;113122;1241;44980;-72
2023/01/22 03:04:11;;;;;;;;;33.00;29.75;23.10;42.50;;;;;;113156;1243;56421;-71
2023/01/22 03:06:42;;;;;;;;;31.00;27.25;23.10;42.50;;;;;;113110;1241;56180;-71
2023/01/22 03:09:11;;;;;;;;;27.75;26.25;23.10;42.50;;;;;;113109;1238;49277;-71
2023/01/22 03:11:40;;;;;;;;;35.25;29.50;23.10;42.50;;;;;;113093;1238;49206;-71
2023/01/22 03:22:25;;;;;;;;;29.75;27.00;23.10;42.50;;;;;;113114;1238;49819;-75
2023/01/22 03:24:52;;;;;;;;;30.25;27.00;23.10;42.50;;;;;;113099;1241;49832;-73
2023/01/22 03:27:22;;;;;;;;;32.25;29.00;23.10;42.50;;;;;;113110;1242;46242;-72
2023/01/22 03:29:49;;;;;;;;;32.00;30.75;23.10;42.50;;;;;;113087;1242;56108;-72
2023/01/22 03:32:16;;;;;;;;;35.00;30.50;23.00;42.40;;;;;;113104;1241;56714;-73
2023/01/22 03:34:43;;;;;;;;;31.50;28.50;23.10;42.50;;;;;;113090;1244;49264;-73
2023/01/22 03:37:14;;;;;;;;;31.75;27.00;23.00;42.40;;;;;;113041;1239;50078;-72
2023/01/22 03:39:41;;;;;;;;;31.75;30.25;23.10;42.50;;;;;;112816;1243;45162;-72
2023/01/22 03:42:08;;;;;;;;;28.50;27.00;23.00;42.40;;;;;;112816;1243;56045;-70
2023/01/22 03:44:35;;;;;;;;;31.50;27.00;23.10;42.50;;;;;;112822;1243;55663;-71
2023/01/22 03:47:02;;;;;;;;;32.50;29.25;23.10;42.50;;;;;;112821;1243;49205;-71
2023/01/22 03:49:29;;;;;;;;;33.00;27.75;23.00;42.40;;;;;;112799;1241;50183;-72
2023/01/22 03:51:56;;;;;;;;;30.00;27.00;23.00;42.40;;;;;;112803;1241;45786;-72
2023/01/22 03:54:23;;;;;;;;;34.00;29.75;23.00;42.40;;;;;;112818;1243;56511;-72
2023/01/22 03:56:50;;;;;;;;;34.00;31.33;23.00;42.40;;;;;;112819;1243;55931;-72
2023/01/22 03:59:17;;;;;;;;;31.00;28.25;23.00;42.40;;;;;;112805;1243;49292;-72
2023/01/22 04:01:44;;;;;;;;;29.50;27.50;23.00;42.40;;;;;;112987;1242;49652;-72
2023/01/22 04:04:10;;;;;;;;;33.75;30.00;23.00;42.40;;;;;;113103;1238;44356;-71
2023/01/22 04:06:37;;;;;;;;;37.00;32.00;23.00;42.30;;;;;;113112;1241;56230;-72
2023/01/22 04:09:04;;;;;;;;;32.00;28.00;23.00;42.30;;;;;;113115;1241;56464;-72
2023/01/22 04:11:31;;;;;;;;;26.00;24.75;23.00;42.30;;;;;;113098;1242;50364;-72
2023/01/22 04:13:58;;;;;;;;;29.00;27.75;23.00;42.30;;;;;;112850;1241;50537;-72
2023/01/22 04:16:25;;;;;;;;;27.00;26.00;23.00;42.30;;;;;;113122;1242;45326;-72
2023/01/22 04:18:52;;;;;;;;;28.00;25.75;23.00;42.30;;;;;;113095;1242;56542;-71
2023/01/22 04:21:18;;;;;;;;;31.75;27.50;23.00;42.30;;;;;;113083;1239;56113;-72
2023/01/22 04:23:45;;;;;;;;;29.75;27.75;23.00;42.30;;;;;;113135;1241;49380;-71
2023/01/22 04:26:12;;;;;;;;;31.50;29.00;23.00;42.30;;;;;;113123;1239;49195;-71
2023/01/22 04:28:39;;;;;;;;;28.00;26.50;23.00;42.30;;;;;;113106;1243;45337;-71
2023/01/22 04:31:07;;;;;;;;;31.00;29.75;23.00;42.30;;;;;;113123;1238;56747;-72
2023/01/22 04:33:34;;;;;;;;;32.75;28.50;23.00;42.30;;;;;;113127;1243;55692;-71
2023/01/22 04:36:01;;;;;;;;;30.00;28.67;23.00;42.30;;;;;;113095;1241;49074;-72
2023/01/22 04:38:28;;;;;;;;;30.25;29.00;23.00;42.30;;;;;;113087;1242;50064;-71
2023/01/22 04:40:55;;;;;;;;;26.25;24.50;23.00;42.30;;;;;;113131;1243;45259;-71
2023/01/22 04:43:22;;;;;;;;;35.25;28.50;23.00;42.60;;;;;;112857;1242;55506;-71
2023/01/22 04:45:50;;;;;;;;;30.00;27.00;23.00;42.30;;;;;;113096;1242;56770;-71
2023/01/22 04:48:17;;;;;;;;;27.25;26.00;23.00;42.30;;;;;;113102;1238;50521;-72
2023/01/22 04:50:44;;;;;;;;;26.75;24.75;23.00;42.30;;;;;;112843;1241;48818;-72
2023/01/22 04:53:10;;;;;;;;;31.75;28.00;23.00;42.30;;;;;;113116;1238;45190;-72
2023/01/22 04:55:37;;;;;;;;;32.75;27.75;23.00;42.30;;;;;;113122;1242;55645;-71
2023/01/22 04:58:04;;;;;;;;;30.75;28.75;23.00;42.40;;;;;;113093;1241;55371;-72
2023/01/22 05:00:31;;;;;;;;;34.50;28.00;23.00;42.30;;;;;;113096;1238;49596;-72
2023/01/22 05:03:00;;;;;;;;;31.75;29.75;23.00;42.30;;;;;;113096;1241;49540;-72
2023/01/22 05:05:28;;;;;;;;;28.00;25.00;23.00;42.30;;;;;;113133;1242;45193;-72
2023/01/22 05:07:55;;;;;;;;;29.50;27.50;23.00;42.30;;;;;;113137;1242;55347;-72
2023/01/22 05:10:22;;;;;;;;;30.25;28.75;23.00;42.30;;;;;;113132;1243;56121;-72
2023/01/22 05:12:50;;;;;;;;;28.75;27.75;23.00;42.30;;;;;;113104;1241;49918;-72
2023/01/22 05:15:17;;;;;;;;;36.75;31.00;23.00;42.30;;;;;;113117;1244;50388;-71
2023/01/22 05:17:44;;;;;;;;;31.00;29.00;23.00;42.30;;;;;;113109;1241;44405;-71
2023/01/22 05:20:13;;;;;;;;;30.75;26.50;23.00;42.50;;;;;;113124;1241;55236;-71
2023/01/22 05:22:40;;;;;;;;;28.00;24.67;23.00;42.30;;;;;;113087;1242;55492;-71
2023/01/22 05:25:07;;;;;;;;;30.75;26.00;23.00;42.30;;;;;;112646;1238;589905;-71
2023/01/22 05:27:34;;;;;;;;;28.75;26.00;23.00;42.30;;;;;;113111;1238;49469;-72
2023/01/22 05:30:02;;;;;;;;;30.25;27.00;23.00;42.30;;;;;;113110;1242;45214;-72
2023/01/22 05:32:29;;;;;;;;;29.75;27.00;22.90;42.20;;;;;;113121;1241;55433;-71
2023/01/22 05:34:56;;;;;;;;;29.75;25.50;23.00;42.30;;;;;;113096;1242;55862;-72
2023/01/22 05:37:22;;;;;;;;;28.75;27.25;22.90;42.20;;;;;;113104;1242;49640;-72
2023/01/22 05:39:49;;;;;;;;;35.75;29.50;23.00;42.30;;;;;;113101;1241;49114;-73
2023/01/22 05:42:16;;;;;;;;;33.75;28.75;22.90;42.20;;;;;;113106;1239;45361;-72
2023/01/22 05:44:43;;;;;;;;;28.25;24.75;22.90;42.20;;;;;;113080;1238;56262;-71
2023/01/22 05:47:11;;;;;;;;;32.00;29.00;22.90;42.20;;;;;;113104;1242;55438;-71
2023/01/22 05:49:39;;;;;;;;;32.00;30.00;22.90;42.40;;;;;;113128;1243;49591;-71
2023/01/22 05:52:09;;;;;;;;;31.25;28.25;23.00;42.30;;;;;;113081;1238;50103;-72
2023/01/22 05:54:39;;;;;;;;;33.25;29.50;23.00;42.20;;;;;;113125;1241;44655;-71
2023/01/22 05:57:06;;;;;;;;;34.25;30.25;22.90;42.20;;;;;;113116;1238;56022;-71
2023/01/22 05:59:33;;;;;;;;;33.25;30.25;23.00;42.20;;;;;;113090;1238;56079;-71
2023/01/22 06:02:00;;;;;;;;;29.67;25.33;22.90;42.10;;;;;;113106;1242;49585;-71
2023/01/22 06:04:28;;;;;;;;;28.75;27.75;23.00;42.30;;;;;;113125;1242;49613;-71
2023/01/22 06:06:55;;;;;;;;;27.75;25.00;22.90;42.20;;;;;;113102;1238;44447;-71
2023/01/22 06:09:22;;;;;;;;;29.25;26.50;22.90;42.10;;;;;;113088;1242;55519;-71
2023/01/22 06:11:49;;;;;;;;;26.50;23.75;22.90;42.20;;;;;;113117;1241;56079;-71
2023/01/22 06:14:16;;;;;;;;;27.75;25.00;22.90;42.20;;;;;;113103;1242;49743;-71
2023/01/22 06:16:43;;;;;;;;;29.25;25.25;22.90;42.20;;;;;;113110;1242;49806;-71
2023/01/22 06:19:11;;;;;;;;;31.50;28.00;22.90;42.20;;;;;;113087;1242;45112;-71
2023/01/22 06:21:38;;;;;;;;;26.00;24.00;22.90;42.20;;;;;;113106;1242;56300;-71
2023/01/22 06:24:06;;;;;;;;;30.75;29.50;22.90;42.20;;;;;;113122;1238;55703;-71
2023/01/22 06:26:32;;;;;;;;;29.75;26.00;22.90;42.20;;;;;;113132;1242;49591;-71
2023/01/22 06:28:59;;;;;;;;;30.25;27.00;22.90;42.20;;;;;;113085;1243;49172;-71
2023/01/22 06:31:26;;;;;;;;;29.50;28.25;22.90;42.20;;;;;;113110;1242;45768;-70
2023/01/22 06:33:53;;;;;;;;;28.50;26.00;22.90;42.20;;;;;;113112;1238;56059;-72
2023/01/22 06:36:21;;;;;;;;;28.25;24.75;22.90;42.20;;;;;;113127;1239;55813;-74
2023/01/22 06:38:48;;;;;;;;;28.50;25.75;22.90;42.20;;;;;;113097;1242;49536;-73
2023/01/22 06:41:15;;;;;;;;;29.33;27.67;22.90;42.20;;;;;;113089;1238;49889;-72
2023/01/22 06:43:41;;;;;;;;;28.50;27.00;22.90;42.10;;;;;;113106;1242;45075;-72
2023/01/22 06:46:08;;;;;;;;;34.00;29.25;22.90;42.30;;;;;;113105;1241;55600;-72
2023/01/22 06:48:35;;;;;;;;;31.25;26.00;22.90;42.30;;;;;;112855;1241;56434;-72
2023/01/22 06:51:02;;;;;;;;;27.75;25.25;22.90;42.10;;;;;;112829;1242;49312;-72
2023/01/22 06:53:29;;;;;;;;;32.67;27.33;22.90;42.40;;;;;;113086;1243;50194;-70
2023/01/22 06:55:59;;;;;;;;;29.25;27.50;22.90;42.10;;;;;;113112;1241;45842;-70
2023/01/22 06:58:26;;;;;;;;;27.00;25.50;22.90;42.20;;;;;;113106;1242;55360;-72
2023/01/22 07:00:53;;;;;;;;;26.25;24.75;22.90;42.20;;;;;;113117;1242;56253;-71
2023/01/22 07:03:20;;;;;;;;;26.25;25.00;22.90;42.10;;;;;;113107;1241;49487;-72
2023/01/22 07:05:55;;;;;;;;;32.50;26.50;22.90;42.10;;;;;;113092;1238;49297;-72
2023/01/22 07:08:22;;;;;;;;;30.25;26.75;22.90;42.10;;;;;;113102;1241;44805;-71
2023/01/22 07:10:50;;;;;;;;;33.00;23.75;22.90;42.10;;;;;;113093;1241;55499;-71
2023/01/22 07:13:16;;;;;;;;;29.50;27.25;22.90;42.10;;;;;;113100;1241;56494;-72
2023/01/22 07:15:43;;;;;;;;;27.75;24.50;22.90;42.10;;;;;;113105;1238;49139;-69
2023/01/22 07:18:13;;;;;;;;;27.75;25.25;22.90;42.10;;;;;;113087;1242;50358;-69
2023/01/22 07:20:41;;;;;;;;;27.50;26.00;22.90;42.10;;;;;;113116;1242;44547;-72
2023/01/22 07:23:08;;;;;;;;;28.00;25.75;22.90;42.10;;;;;;113112;1238;56639;-72
2023/01/22 07:25:35;;;;;;;;;28.25;26.00;22.90;42.10;;;;;;113108;1244;56310;-72
2023/01/22 07:28:04;;;;;;;;;37.50;26.75;22.90;42.60;;;;;;113108;1241;49679;-72
2023/01/22 07:30:31;;;;;;;;;32.50;30.75;22.90;42.30;;;;;;113108;1238;49536;-72
2023/01/22 07:33:02;;;;;;;;;30.00;28.00;22.90;42.10;;;;;;113115;1243;44521;-72
2023/01/22 07:35:29;;;;;;;;;26.75;25.25;22.90;42.10;;;;;;113054;1243;57277;-72
2023/01/22 07:37:57;;;;;;;;;30.75;27.00;22.90;42.10;;;;;;113128;1242;55990;-72
2023/01/22 07:40:25;;;;;;;;;30.00;24.75;22.90;42.00;;;;;;113114;1242;49335;-72
2023/01/22 07:42:53;;;;;;;;;30.00;27.67;22.90;42.20;;;;;;112876;1243;50278;-73
2023/01/22 07:45:22;;;;;;;;;32.25;29.50;22.90;42.00;;;;;;113100;1242;45473;-71
2023/01/22 07:47:53;;;;;;;;;30.00;28.75;22.90;42.00;;;;;;113126;1241;56777;-71
2023/01/22 07:50:21;;;;;;;;;28.33;27.00;22.90;42.00;;;;;;113108;1241;55551;-71
2023/01/22 07:52:48;;;;;;;;;34.25;30.75;22.90;42.00;;;;;;113108;1241;50072;-71
2023/01/22 07:55:15;;;;;;;;;30.75;29.00;22.90;42.00;;;;;;113102;1243;49116;-71
2023/01/22 07:57:42;;;;;;;;;30.25;28.75;22.90;42.00;;;;;;113112;1243;45108;-71
2023/01/22 08:00:11;;;;;;;;;27.50;26.00;22.90;42.00;;;;;;113127;1239;56437;-72
2023/01/22 08:02:38;;;;;;;;;26.00;23.25;22.90;42.00;;;;;;113112;1242;55767;-72
2023/01/22 08:05:06;;;;;;;;;29.00;25.00;22.90;42.00;;;;;;112861;1238;50134;-72
2023/01/22 08:07:34;;;;;;;;;28.75;24.75;22.90;42.00;;;;;;113103;1243;49616;-71
2023/01/22 08:10:01;;;;;;;;;26.75;22.75;22.90;42.00;;;;;;113102;1238;44836;-72
2023/01/22 08:12:28;;;;;;;;;30.00;27.00;22.90;42.00;;;;;;113137;1243;55890;-72
2023/01/22 08:14:55;;;;;;;;;33.25;29.50;22.90;42.00;;;;;;113125;1242;55932;-72
2023/01/22 08:17:22;;;;;;;;;34.33;29.67;22.90;42.20;;;;;;113105;1242;49559;-72
2023/01/22 08:19:49;;;;;;;;;32.25;29.00;22.90;42.00;;;;;;113099;1242;49970;-72
2023/01/22 08:22:16;;;;;;;;;31.25;27.50;22.90;42.00;;;;;;113114;1241;45038;-71
2023/01/22 08:24:42;;;;;;;;;32.75;29.00;22.90;42.10;;;;;;112856;1244;56467;-71
2023/01/22 08:27:09;;;;;;;;;29.33;26.00;22.90;42.00;;;;;;113110;1241;55697;-71
2023/01/22 08:29:36;;;;;;;;;30.50;27.75;22.90;42.10;;;;;;113100;1243;49639;-71
2023/01/22 08:32:03;;;;;;;;;28.25;25.25;22.90;42.00;;;;;;113098;1243;49190;-70
2023/01/22 08:34:30;;;;;;;;;31.50;26.25;22.90;42.10;;;;;;113150;1241;45893;-71
2023/01/22 08:36:57;;;;;;;;;28.75;26.50;22.90;42.10;;;;;;113161;1238;55563;-71
2023/01/22 08:39:24;;;;;;;;;30.50;27.50;22.90;42.10;;;;;;113135;1241;55280;-71
2023/01/22 08:41:56;;;;;;;;;30.75;26.50;22.90;42.10;;;;;;113134;1241;49410;-72
2023/01/22 08:44:23;;;;;;;;;27.00;25.50;22.90;42.00;;;;;;113147;1241;50513;-72
2023/01/22 08:46:50;;;;;;;;;33.50;28.75;22.90;42.10;;;;;;113152;1237;45315;-72
2023/01/22 08:49:20;;;;;;;;;29.33;27.67;22.90;42.00;;;;;;113119;1238;56447;-72
2023/01/22 08:51:49;;;;;;;;;31.00;28.50;22.90;42.00;;;;;;113152;1241;56029;-71
2023/01/22 08:54:17;;;;;;;;;31.00;29.00;22.90;42.00;;;;;;113119;1241;49950;-72
2023/01/22 08:56:43;;;;;;;;;31.75;28.50;22.90;42.00;;;;;;113134;1241;49503;-71
2023/01/22 08:59:10;;;;;;;;;24.50;23.25;22.90;42.00;;;;;;113131;1237;45526;-71
2023/01/22 09:01:37;;;;;;;;;29.00;27.25;22.90;42.00;;;;;;113126;1241;55817;-71
2023/01/22 09:04:09;;;;;;;;;27.00;23.75;22.90;42.00;;;;;;113133;1241;56641;-71
2023/01/22 09:06:37;;;;;;;;;31.75;30.00;22.90;42.00;;;;;;113121;1237;49549;-72
2023/01/22 09:09:05;;;;;;;;;26.75;24.50;22.90;42.00;;;;;;113128;1241;49670;-72
2023/01/22 09:11:32;;;;;;;;;32.50;28.50;22.90;42.00;;;;;;113123;1241;45287;-73
2023/01/22 09:13:59;;;;;;;;;29.50;26.50;22.90;42.00;;;;;;113139;1241;55318;-73
2023/01/22 09:16:26;;;;;;;;;27.67;25.67;22.90;42.00;;;;;;113113;1241;56691;-72
2023/01/22 09:18:54;;;;;;;;;32.00;28.75;22.90;42.00;;;;;;113118;1241;49317;-72
2023/01/22 09:21:21;;;;;;;;;32.25;29.00;22.90;42.00;;;;;;113105;1241;49324;-72
2023/01/22 09:23:47;;;;;;;;;29.50;27.75;22.90;42.00;;;;;;113116;1237;45439;-72
2023/01/22 09:26:14;;;;;;;;;33.00;29.25;22.90;42.00;;;;;;113137;1241;56605;-71
2023/01/22 09:28:41;;;;;;;;;29.75;26.50;22.90;42.00;;;;;;113109;1241;56557;-71
2023/01/22 09:31:12;;;;;;;;;33.00;30.00;22.90;42.00;;;;;;113081;1241;49953;-71
2023/01/22 09:33:39;;;;;;;;;32.50;28.50;22.90;42.00;;;;;;113073;1242;48988;-71
2023/01/22 09:36:11;;;;;;;;;36.75;31.50;22.90;42.00;;;;;;113080;1242;45376;-71
2023/01/22 09:38:38;;;;;;;;;35.75;29.00;22.90;42.00;;;;;;113075;1242;55781;-72
2023/01/22 09:41:32;;;;;;;;;31.25;28.00;23.00;42.00;;;;;;113056;1242;56317;-73
2023/01/22 09:44:04;;;;;;;;;32.50;30.00;23.00;42.00;;;;;;113063;1242;49770;-72
2023/01/22 09:46:43;;;;;;;;;35.00;30.75;23.00;42.00;;;;;;113063;1238;49766;-73
2023/01/22 09:49:16;;;;;;;;;31.00;29.00;23.00;42.00;;;;;;113095;1242;45612;-72
2023/01/22 09:51:48;;;;;;;;;27.00;26.00;23.00;42.50;;;;;;113106;1242;56371;-72
2023/01/22 09:54:16;;;;;;;;;32.25;29.25;23.00;41.90;;;;;;113114;1242;55350;-72
2023/01/22 09:56:51;;;;;;;;;31.00;28.25;23.00;41.90;;;;;;113114;1241;49309;-72
2023/01/22 09:59:25;;;;;;;;;29.75;26.25;23.00;41.90;;;;;;113105;1241;49396;-72
2023/01/22 10:01:56;;;;;;;;;32.67;27.67;23.00;41.90;;;;;;113110;1238;44785;-73
2023/01/22 10:04:29;;;;;;;;;31.00;28.00;23.00;42.10;;;;;;113103;1237;56287;-72
2023/01/22 10:06:57;;;;;;;;;32.00;28.75;23.00;41.80;;;;;;113105;1241;55105;-73
2023/01/22 10:09:28;;;;;;;;;30.50;27.50;23.00;41.80;;;;;;112849;1243;49702;-73
2023/01/22 10:11:57;;;;;;;;;35.00;26.00;23.00;41.90;;;;;;112840;1241;49480;-72
2023/01/22 10:14:27;;;;;;;;;33.25;29.00;23.00;41.90;;;;;;113146;1241;44542;-72
2023/01/22 10:16:58;;;;;;;;;28.50;25.00;23.00;41.90;;;;;;113139;1241;55393;-71
2023/01/22 10:19:28;;;;;;;;;26.00;23.00;23.00;41.90;;;;;;113118;1238;55490;-70
2023/01/22 10:21:59;;;;;;;;;26.00;24.50;23.00;41.90;;;;;;112844;1241;50014;-71
2023/01/22 10:24:26;;;;;;;;;28.00;26.33;23.00;41.90;;;;;;112866;1243;49705;-71
2023/01/22 10:26:54;;;;;;;;;30.25;26.50;23.00;41.90;;;;;;113106;1237;44678;-71
2023/01/22 10:29:31;;;;;;;;;30.25;28.00;23.00;41.90;;;;;;113131;1241;55274;-71
2023/01/22 10:32:01;;;;;;;;;29.25;26.75;23.00;41.50;;;;;;113121;1241;56057;-71
2023/01/22 10:34:31;;;;;;;;;34.25;29.75;23.00;41.90;;;;;;113113;1238;50186;-71
2023/01/22 10:37:13;;;;;;;;;27.00;25.00;23.00;41.90;;;;;;113102;1241;49375;-71
2023/01/22 10:39:45;;;;;;;;;31.75;28.00;23.00;41.90;;;;;;113112;1241;45098;-72
2023/01/22 10:42:20;;;;;;;;;30.50;27.75;23.00;42.50;;;;;;113123;1241;55211;-72
2023/01/22 10:44:48;;;;;;;;;28.00;26.50;23.00;41.90;;;;;;113126;1238;56101;-72
2023/01/22 10:47:21;;;;;;;;;31.00;27.00;23.00;41.90;;;;;;113123;1237;49595;-72
2023/01/22 10:50:00;;;;;;;;;28.00;26.50;23.00;41.90;;;;;;113125;1241;49864;-71
2023/01/22 10:52:35;;;;;;;;;29.25;26.25;23.00;41.90;;;;;;113152;1241;44621;-71
2023/01/22 10:55:03;;;;;;;;;33.00;26.25;23.00;41.90;;;;;;113131;1241;55726;-71
2023/01/22 10:57:36;;;;;;;;;27.00;24.00;23.00;41.80;;;;;;112857;1244;56455;-71
2023/01/22 11:00:21;;;;;;;;;31.00;28.00;23.00;41.80;;;;;;112830;1241;49232;-72
2023/01/22 11:02:49;;;;;;;;;34.00;28.25;23.00;41.80;;;;;;112992;1238;49307;-71
2023/01/22 11:05:20;;;;;;;;;28.75;25.50;23.00;41.80;;;;;;113123;1241;45183;-72
2023/01/22 11:07:51;;;;;;;;;26.50;25.50;23.00;41.80;;;;;;113120;1241;55911;-72
2023/01/22 11:10:26;;;;;;;;;30.75;28.50;23.00;41.80;;;;;;113106;1241;55574;-72
2023/01/22 11:12:59;;;;;;;;;33.33;29.67;23.00;41.80;;;;;;112842;1242;49003;-72
2023/01/22 11:15:33;;;;;;;;;28.50;24.75;23.00;42.00;;;;;;113093;1238;49003;-72
2023/01/22 11:18:02;;;;;;;;;31.50;26.00;23.00;41.80;;;;;;113116;1241;44204;-72
2023/01/22 11:20:51;;;;;;;;;28.00;26.00;23.00;41.80;;;;;;113142;1238;55389;-71
2023/01/22 11:23:37;;;;;;;;;33.25;28.75;23.00;41.80;;;;;;113107;1238;55658;-72
2023/01/22 11:26:25;;;;;;;;;33.50;30.00;23.00;41.80;;;;;;113049;1243;49527;-72
2023/01/22 11:29:13;;;;;;;;;32.25;30.00;23.00;41.70;;;;;;113114;1243;49014;-72
2023/01/22 11:31:53;;;;;;;;;26.25;23.50;23.00;41.80;;;;;;113114;1242;45192;-72
2023/01/22 11:34:42;;;;;;;;;31.00;28.00;23.10;41.80;;;;;;113122;1243;55883;-72
2023/01/22 11:37:16;;;;;;;;;28.25;26.75;23.00;41.70;;;;;;113092;1242;56462;-72
2023/01/22 11:39:57;;;;;;;;;32.75;25.75;23.00;41.80;;;;;;113106;1238;48965;-71
2023/01/22 11:42:27;;;;;;;;;27.75;24.50;23.00;41.80;;;;;;113105;1242;49262;-71
2023/01/22 11:44:57;;;;;;;;;32.75;26.75;23.00;41.80;;;;;;113115;1242;45931;-72
2023/01/22 11:47:46;;;;;;;;;31.75;26.00;23.00;41.80;;;;;;113110;1242;55874;-72
2023/01/22 11:50:54;;;;;;;;;29.00;25.25;23.00;41.80;;;;;;113107;1238;56853;-72
2023/01/22 11:53:24;;;;;;;;;30.00;28.25;23.00;41.80;;;;;;113097;1242;48954;-72
2023/01/22 11:56:22;;;;;;;;;28.75;26.00;23.00;41.80;;;;;;113085;1238;50228;-72
2023/01/22 11:59:27;;;;;;;;;25.75;24.25;23.00;41.80;;;;;;113111;1243;44432;-72
2023/01/22 12:02:15;;;;;;;;;33.00;28.50;23.00;41.70;;;;;;113101;1238;56304;-72
2023/01/22 12:05:07;;;;;;;;;29.25;27.50;23.00;41.70;;;;;;113136;1243;55411;-72
2023/01/22 12:08:01;;;;;;;;;28.00;26.00;23.00;41.70;;;;;;113136;1238;49452;-72
2023/01/22 12:11:00;;;;;;;;;30.67;28.33;23.00;41.70;;;;;;113122;1238;49963;-72
2023/01/22 12:14:09;;;;;;;;;28.75;25.50;23.00;41.80;;;;;;113139;1237;45162;-72
2023/01/22 12:16:52;;;;;;;;;34.67;26.33;23.00;41.80;;;;;;113154;1241;55087;-72
2023/01/22 12:19:56;;;;;;;;;29.50;27.75;23.00;41.90;;;;;;112874;1241;55626;-71
2023/01/22 12:22:39;;;;;;;;;23.00;22.00;23.00;41.80;;;;;;113116;1241;49622;-71
2023/01/22 12:25:31;;;;;;;;;28.00;25.25;23.10;41.80;;;;;;113100;1241;49660;-71
2023/01/22 12:28:27;;;;;;;;;29.00;26.00;23.00;41.80;;;;;;113125;1241;44970;-71
2023/01/22 12:31:20;;;;;;;;;30.25;28.00;23.00;41.80;;;;;;113093;1241;55556;-71
2023/01/22 12:33:47;;;;;;;;;35.75;29.25;23.00;41.90;;;;;;113083;1237;56023;-71
2023/01/22 12:36:18;;;;;;;;;31.50;30.00;23.00;41.80;;;;;;113125;1241;49629;-71
2023/01/22 12:39:22;;;;;;;;;34.50;29.00;23.00;41.80;;;;;;113111;1237;48887;-71
2023/01/22 12:42:01;;;;;;;;;27.50;26.00;23.00;41.80;;;;;;113106;1241;45170;-71